createdAt,value
2023-03-10T00:00:28.591Z,89.61
2023-03-10T00:01:34.013Z,90.39
2023-03-10T00:02:34.260Z,90.15
2023-03-10T00:03:31.101Z,91.06
2023-03-10T00:04:28.279Z,91.46
2023-03-10T00:05:25.217Z,92.99
2023-03-10T00:06:24.757Z,93.08
2023-03-10T00:07:21.753Z,93.21
2023-03-10T00:08:18.516Z,93.23
2023-03-10T00:09:15.271Z,93.68
2023-03-10T00:10:14.438Z,93.48
2023-03-10T00:11:12.660Z,93.85
2023-03-10T00:12:09.620Z,95.16
2023-03-10T00:13:06.364Z,94.86
2023-03-10T00:14:03.167Z,95.83
2023-03-10T00:14:59.931Z,96.72
2023-03-10T00:15:57.033Z,97.41
2023-03-10T00:16:53.835Z,97.58
2023-03-10T00:17:50.702Z,97.13
2023-03-10T00:18:48.902Z,97.02
2023-03-10T00:19:45.745Z,96.70
2023-03-10T00:20:42.601Z,97.00
2023-03-10T00:21:39.461Z,98.14
2023-03-10T00:22:38.947Z,98.63
2023-03-10T00:23:37.442Z,99.92
2023-03-10T00:24:34.505Z,100.00
2023-03-10T00:25:33.771Z,100.00
2023-03-10T00:26:30.663Z,99.94
2023-03-10T00:27:27.457Z,99.67
2023-03-10T00:28:26.276Z,100.00
2023-03-10T00:29:23.184Z,100.00
2023-03-10T00:30:20.136Z,99.75
2023-03-10T00:31:22.647Z,100.00
2023-03-10T00:32:19.661Z,100.00
2023-03-10T00:33:16.589Z,100.00
2023-03-10T00:34:13.473Z,100.00
2023-03-10T00:35:10.246Z,100.00
2023-03-10T00:36:13.479Z,100.00
2023-03-10T00:37:10.320Z,100.00
2023-03-10T00:38:07.155Z,100.00
2023-03-10T00:39:05.421Z,100.00
2023-03-10T00:40:02.258Z,100.00
2023-03-10T00:41:04.360Z,100.00
2023-03-10T00:42:01.269Z,100.00
2023-03-10T00:42:59.496Z,100.00
2023-03-10T00:43:57.410Z,100.00
2023-03-10T00:44:54.233Z,100.00
2023-03-10T00:45:51.120Z,100.00
2023-03-10T00:46:48.062Z,100.00
2023-03-10T00:47:44.965Z,100.00
2023-03-10T00:48:42.257Z,100.00
2023-03-10T00:49:39.088Z,100.00
2023-03-10T00:50:35.895Z,100.00
2023-03-10T00:51:33.913Z,100.00
2023-03-10T00:52:34.279Z,100.00
2023-03-10T00:53:31.421Z,100.00
2023-03-10T00:54:28.254Z,100.00
2023-03-10T00:55:25.131Z,100.00
2023-03-10T00:56:26.160Z,100.00
2023-03-10T00:57:22.935Z,100.00
2023-03-10T00:58:19.697Z,100.00
2023-03-10T00:59:16.585Z,100.00
2023-03-10T01:00:17.964Z,100.00
2023-03-10T01:01:34.409Z,100.00
2023-03-10T01:02:31.240Z,100.00
2023-03-10T01:03:29.133Z,100.00
2023-03-10T01:04:26.067Z,100.00
2023-03-10T01:05:22.943Z,100.00
2023-03-10T01:06:20.091Z,100.00
2023-03-10T01:07:16.904Z,100.00
2023-03-10T01:08:13.719Z,100.00
2023-03-10T01:09:10.624Z,100.00
2023-03-10T01:10:07.772Z,100.00
2023-03-10T01:11:04.739Z,100.00
2023-03-10T01:12:01.475Z,100.00
2023-03-10T01:12:58.271Z,100.00
2023-03-10T01:13:59.771Z,100.00
2023-03-10T01:14:57.705Z,100.00
2023-03-10T01:15:54.588Z,100.00
2023-03-10T01:16:51.480Z,100.00
2023-03-10T01:17:48.366Z,100.00
2023-03-10T01:18:45.284Z,100.00
2023-03-10T01:19:42.023Z,100.00
2023-03-10T01:20:41.642Z,100.00
2023-03-10T01:21:39.429Z,100.00
2023-03-10T01:22:36.283Z,100.00
2023-03-10T01:23:33.107Z,100.00
2023-03-10T01:24:30.009Z,100.00
2023-03-10T01:25:27.569Z,100.00
2023-03-10T01:26:24.509Z,100.00
2023-03-10T01:27:21.282Z,100.00
2023-03-10T01:28:19.546Z,100.00
2023-03-10T01:29:16.393Z,100.00
2023-03-10T01:30:13.662Z,100.00
2023-03-10T01:31:10.537Z,100.00
2023-03-10T01:32:07.744Z,100.00
2023-03-10T01:33:05.088Z,100.00
2023-03-10T01:34:01.978Z,100.00
2023-03-10T01:34:58.758Z,100.00
2023-03-10T01:35:55.629Z,100.00
2023-03-10T01:36:52.408Z,100.00
2023-03-10T01:37:49.194Z,100.00
2023-03-10T01:38:46.748Z,100.00
2023-03-10T01:39:43.563Z,100.00
2023-03-10T01:40:41.431Z,100.00
2023-03-10T01:41:40.185Z,100.00
2023-03-10T01:42:38.128Z,100.00
2023-03-10T01:43:43.624Z,100.00
2023-03-10T01:44:40.387Z,100.00
2023-03-10T01:45:37.059Z,100.00
2023-03-10T01:46:50.548Z,100.00
2023-03-10T01:47:47.453Z,100.00
2023-03-10T01:48:44.330Z,100.00
2023-03-10T01:49:46.168Z,100.00
2023-03-10T01:50:46.983Z,100.00
2023-03-10T01:51:48.954Z,100.00
2023-03-10T01:52:58.221Z,100.00
2023-03-10T01:53:55.071Z,100.00
2023-03-10T01:54:57.880Z,100.00
2023-03-10T01:56:00.807Z,100.00
2023-03-10T01:56:59.031Z,100.00
2023-03-10T01:57:57.826Z,100.00
2023-03-10T01:58:55.169Z,100.00
2023-03-10T01:59:52.748Z,100.00
2023-03-10T02:00:54.161Z,100.00
2023-03-10T02:01:52.768Z,100.00
2023-03-10T02:02:55.703Z,100.00
2023-03-10T02:04:00.298Z,100.00
2023-03-10T02:04:58.365Z,100.00
2023-03-10T02:05:59.983Z,100.00
2023-03-10T02:06:58.004Z,100.00
2023-03-10T02:07:56.466Z,100.00
2023-03-10T02:09:06.161Z,100.00
2023-03-10T02:10:04.373Z,100.00
2023-03-10T02:11:01.831Z,100.00
2023-03-10T02:12:00.068Z,100.00
2023-03-10T02:12:56.867Z,100.00
2023-03-10T02:13:55.555Z,100.00
2023-03-10T02:14:54.022Z,100.00
2023-03-10T02:15:51.239Z,100.00
2023-03-10T02:16:48.207Z,100.00
2023-03-10T02:17:45.137Z,100.00
2023-03-10T02:18:46.056Z,100.00
2023-03-10T02:19:55.331Z,100.00
2023-03-10T02:21:10.749Z,100.00
2023-03-10T02:22:11.688Z,100.00
2023-03-10T02:23:14.280Z,100.00
2023-03-10T02:24:39.717Z,100.00
2023-03-10T02:25:50.527Z,100.00
2023-03-10T02:26:59.803Z,100.00
2023-03-10T02:27:57.767Z,100.00
2023-03-10T02:28:59.869Z,100.00
2023-03-10T02:29:59.703Z,100.00
2023-03-10T02:30:57.832Z,100.00
2023-03-10T02:31:56.982Z,100.00
2023-03-10T02:32:59.070Z,100.00
2023-03-10T02:33:56.809Z,100.00
2023-03-10T02:34:53.669Z,100.00
2023-03-10T02:35:50.975Z,100.00
2023-03-10T02:36:48.086Z,100.00
2023-03-10T02:37:44.996Z,100.00
2023-03-10T02:38:41.962Z,100.00
2023-03-10T02:39:38.721Z,100.00
2023-03-10T02:40:49.366Z,100.00
2023-03-10T02:41:46.718Z,100.00
2023-03-10T02:42:43.459Z,100.00
2023-03-10T02:43:40.340Z,100.00
2023-03-10T02:44:40.015Z,100.00
2023-03-10T02:45:41.295Z,100.00
2023-03-10T02:46:38.249Z,100.00
2023-03-10T02:47:35.091Z,100.00
2023-03-10T02:48:35.875Z,100.00
2023-03-10T02:49:36.363Z,100.00
2023-03-10T02:50:38.075Z,100.00
2023-03-10T02:51:38.669Z,100.00
2023-03-10T02:52:50.293Z,100.00
2023-03-10T02:53:47.389Z,100.00
2023-03-10T02:54:44.214Z,100.00
2023-03-10T02:55:41.275Z,100.00
2023-03-10T02:56:38.715Z,100.00
2023-03-10T02:57:35.460Z,100.00
2023-03-10T02:58:32.341Z,100.00
2023-03-10T02:59:29.152Z,100.00
2023-03-10T03:00:25.930Z,100.00
2023-03-10T03:01:22.912Z,100.00
2023-03-10T03:02:19.717Z,100.00
2023-03-10T03:03:20.340Z,100.00
2023-03-10T03:04:17.337Z,100.00
2023-03-10T03:05:14.377Z,100.00
2023-03-10T03:06:11.661Z,100.00
2023-03-10T03:07:08.456Z,100.00
2023-03-10T03:08:07.934Z,100.00
2023-03-10T03:09:05.354Z,100.00
2023-03-10T03:10:08.477Z,100.00
2023-03-10T03:11:06.040Z,100.00
2023-03-10T03:12:03.019Z,100.00
2023-03-10T03:12:59.928Z,100.00
2023-03-10T03:13:56.793Z,100.00
2023-03-10T03:14:54.138Z,100.00
2023-03-10T03:15:51.942Z,100.00
2023-03-10T03:16:48.823Z,100.00
2023-03-10T03:17:45.747Z,100.00
2023-03-10T03:18:42.632Z,100.00
2023-03-10T03:19:39.348Z,100.00
2023-03-10T03:20:38.257Z,100.00
2023-03-10T03:21:35.130Z,100.00
2023-03-10T03:22:32.040Z,100.00
2023-03-10T03:23:28.984Z,100.00
2023-03-10T03:24:25.792Z,100.00
2023-03-10T03:25:25.081Z,100.00
2023-03-10T03:26:24.803Z,100.00
2023-03-10T03:27:21.536Z,100.00
2023-03-10T03:28:18.352Z,100.00
2023-03-10T03:29:17.698Z,100.00
2023-03-10T03:30:20.982Z,100.00
2023-03-10T03:31:23.046Z,100.00
2023-03-10T03:32:19.852Z,100.00
2023-03-10T03:33:16.738Z,100.00
2023-03-10T03:34:13.764Z,100.00
2023-03-10T03:35:17.664Z,100.00
2023-03-10T03:36:14.583Z,100.00
2023-03-10T03:37:11.430Z,100.00
2023-03-10T03:38:08.557Z,100.00
2023-03-10T03:39:08.202Z,100.00
2023-03-10T03:40:14.801Z,100.00
2023-03-10T03:41:11.785Z,100.00
2023-03-10T03:42:08.654Z,100.00
2023-03-10T03:43:05.814Z,100.00
2023-03-10T03:44:02.723Z,100.00
2023-03-10T03:44:59.456Z,100.00
2023-03-10T03:45:56.715Z,100.00
2023-03-10T03:46:53.521Z,100.00
2023-03-10T03:47:51.260Z,100.00
2023-03-10T03:48:48.050Z,100.00
2023-03-10T03:49:44.829Z,100.00
2023-03-10T03:50:41.631Z,100.00
2023-03-10T03:51:38.417Z,100.00
2023-03-10T03:52:35.332Z,100.00
2023-03-10T03:53:33.911Z,100.00
2023-03-10T03:54:30.704Z,100.00
2023-03-10T03:55:28.942Z,100.00
2023-03-10T03:56:25.797Z,100.00
2023-03-10T03:57:23.653Z,100.00
2023-03-10T03:58:20.581Z,100.00
2023-03-10T03:59:17.334Z,100.00
2023-03-10T04:00:25.275Z,100.00
2023-03-10T04:01:22.131Z,100.00
2023-03-10T04:02:19.104Z,100.00
2023-03-10T04:03:16.060Z,100.00
2023-03-10T04:04:12.898Z,100.00
2023-03-10T04:05:09.880Z,100.00
2023-03-10T04:06:08.401Z,100.00
2023-03-10T04:07:05.255Z,100.00
2023-03-10T04:08:02.052Z,100.00
2023-03-10T04:08:58.935Z,100.00
2023-03-10T04:09:55.780Z,100.00
2023-03-10T04:10:54.657Z,100.00
2023-03-10T04:11:51.440Z,100.00
2023-03-10T04:12:48.270Z,100.00
2023-03-10T04:13:45.171Z,100.00
2023-03-10T04:14:42.040Z,100.00
2023-03-10T04:15:38.955Z,100.00
2023-03-10T04:16:35.941Z,100.00
2023-03-10T04:17:32.982Z,100.00
2023-03-10T04:18:29.904Z,100.00
2023-03-10T04:19:26.970Z,100.00
2023-03-10T04:20:25.208Z,100.00
2023-03-10T04:21:22.054Z,100.00
2023-03-10T04:22:18.901Z,100.00
2023-03-10T04:23:16.258Z,100.00
2023-03-10T04:24:13.172Z,100.00
2023-03-10T04:25:10.829Z,100.00
2023-03-10T04:26:10.959Z,100.00
2023-03-10T04:27:09.654Z,100.00
2023-03-10T04:28:06.562Z,100.00
2023-03-10T04:29:03.668Z,100.00
2023-03-10T04:30:04.810Z,100.00
2023-03-10T04:31:01.561Z,100.00
2023-03-10T04:32:05.250Z,100.00
2023-03-10T04:33:03.241Z,100.00
2023-03-10T04:34:00.149Z,100.00
2023-03-10T04:34:56.960Z,100.00
2023-03-10T04:35:54.473Z,100.00
2023-03-10T04:36:51.351Z,100.00
2023-03-10T04:37:48.265Z,100.00
2023-03-10T04:38:45.124Z,100.00
2023-03-10T04:39:42.034Z,100.00
2023-03-10T04:40:39.378Z,100.00
2023-03-10T04:41:36.914Z,100.00
2023-03-10T04:42:33.845Z,100.00
2023-03-10T04:43:31.344Z,100.00
2023-03-10T04:44:31.240Z,100.00
2023-03-10T04:45:28.604Z,100.00
2023-03-10T04:46:25.566Z,100.00
2023-03-10T04:47:22.724Z,100.00
2023-03-10T04:48:19.559Z,100.00
2023-03-10T04:49:16.494Z,100.00
2023-03-10T04:50:17.482Z,100.00
2023-03-10T04:51:14.364Z,100.00
2023-03-10T04:52:12.260Z,100.00
2023-03-10T04:53:09.147Z,100.00
2023-03-10T04:54:05.944Z,100.00
2023-03-10T04:55:02.776Z,100.00
2023-03-10T04:56:01.201Z,100.00
2023-03-10T04:56:58.042Z,100.00
2023-03-10T04:57:54.781Z,100.00
2023-03-10T04:58:51.825Z,100.00
2023-03-10T04:59:48.678Z,100.00
2023-03-10T05:01:01.893Z,100.00
2023-03-10T05:02:00.539Z,100.00
2023-03-10T05:02:57.328Z,100.00
2023-03-10T05:03:54.280Z,100.00
2023-03-10T05:04:51.105Z,100.00
2023-03-10T05:05:48.037Z,100.00
2023-03-10T05:06:44.807Z,100.00
2023-03-10T05:07:42.165Z,100.00
2023-03-10T05:08:39.060Z,100.00
2023-03-10T05:09:37.886Z,100.00
2023-03-10T05:10:34.951Z,100.00
2023-03-10T05:11:32.616Z,100.00
2023-03-10T05:12:29.525Z,100.00
2023-03-10T05:13:26.360Z,100.00
2023-03-10T05:14:23.153Z,100.00
2023-03-10T05:15:20.032Z,100.00
2023-03-10T05:16:20.345Z,100.00
2023-03-10T05:17:17.284Z,100.00
2023-03-10T05:18:14.136Z,100.00
2023-03-10T05:19:10.983Z,100.00
2023-03-10T05:20:09.633Z,100.00
2023-03-10T05:21:06.664Z,100.00
2023-03-10T05:22:06.057Z,100.00
2023-03-10T05:23:02.940Z,100.00
2023-03-10T05:23:59.804Z,100.00
2023-03-10T05:24:56.620Z,100.00
2023-03-10T05:25:53.516Z,100.00
2023-03-10T05:26:50.709Z,100.00
2023-03-10T05:27:47.654Z,100.00
2023-03-10T05:28:44.616Z,100.00
2023-03-10T05:29:41.479Z,100.00
2023-03-10T05:30:38.370Z,100.00
2023-03-10T05:31:35.424Z,100.00
2023-03-10T05:32:35.500Z,100.00
2023-03-10T05:33:32.606Z,100.00
2023-03-10T05:34:30.715Z,100.00
2023-03-10T05:35:27.477Z,100.00
2023-03-10T05:36:24.515Z,100.00
2023-03-10T05:37:21.403Z,100.00
2023-03-10T05:38:18.381Z,100.00
2023-03-10T05:39:15.225Z,100.00
2023-03-10T05:40:20.122Z,100.00
2023-03-10T05:41:17.045Z,100.00
2023-03-10T05:42:13.862Z,100.00
2023-03-10T05:43:11.498Z,100.00
2023-03-10T05:44:08.282Z,100.00
2023-03-10T05:45:06.308Z,100.00
2023-03-10T05:46:03.603Z,100.00
2023-03-10T05:47:00.581Z,100.00
2023-03-10T05:47:59.965Z,100.00
2023-03-10T05:48:57.696Z,100.00
2023-03-10T05:49:54.646Z,100.00
2023-03-10T05:50:58.391Z,100.00
2023-03-10T05:51:55.284Z,100.00
2023-03-10T05:52:52.214Z,100.00
2023-03-10T05:53:49.152Z,100.00
2023-03-10T05:54:45.984Z,100.00
2023-03-10T05:55:42.778Z,100.00
2023-03-10T05:56:39.838Z,100.00
2023-03-10T05:57:37.068Z,100.00
2023-03-10T05:58:34.025Z,100.00
2023-03-10T05:59:30.954Z,100.00
2023-03-10T06:00:28.100Z,100.00
2023-03-10T06:01:24.882Z,100.00
2023-03-10T06:02:21.666Z,100.00
2023-03-10T06:03:20.034Z,100.00
2023-03-10T06:04:16.916Z,100.00
2023-03-10T06:05:13.902Z,100.00
2023-03-10T06:06:11.641Z,100.00
2023-03-10T06:07:08.424Z,100.00
2023-03-10T06:08:05.771Z,100.00
2023-03-10T06:09:03.673Z,100.00
2023-03-10T06:10:00.609Z,100.00
2023-03-10T06:10:58.026Z,100.00
2023-03-10T06:11:54.858Z,100.00
2023-03-10T06:12:51.614Z,100.00
2023-03-10T06:13:48.649Z,100.00
2023-03-10T06:14:48.520Z,100.00
2023-03-10T06:15:50.912Z,100.00
2023-03-10T06:16:51.593Z,100.00
2023-03-10T06:17:48.529Z,100.00
2023-03-10T06:18:45.624Z,100.00
2023-03-10T06:19:43.076Z,100.00
2023-03-10T06:20:40.128Z,100.00
2023-03-10T06:21:36.927Z,100.00
2023-03-10T06:22:33.816Z,100.00
2023-03-10T06:23:30.657Z,100.00
2023-03-10T06:24:28.971Z,100.00
2023-03-10T06:25:25.763Z,100.00
2023-03-10T06:26:22.947Z,100.00
2023-03-10T06:27:19.812Z,100.00
2023-03-10T06:28:16.685Z,100.00
2023-03-10T06:29:13.438Z,100.00
2023-03-10T06:30:10.967Z,100.00
2023-03-10T06:31:19.847Z,100.00
2023-03-10T06:32:16.911Z,100.00
2023-03-10T06:33:13.867Z,100.00
2023-03-10T06:34:10.736Z,100.00
2023-03-10T06:35:07.960Z,100.00
2023-03-10T06:36:05.780Z,100.00
2023-03-10T06:37:02.716Z,100.00
2023-03-10T06:37:59.474Z,100.00
2023-03-10T06:38:56.641Z,100.00
2023-03-10T06:39:53.470Z,100.00
2023-03-10T06:40:50.597Z,100.00
2023-03-10T06:41:47.588Z,100.00
2023-03-10T06:42:44.655Z,100.00
2023-03-10T06:43:41.699Z,100.00
2023-03-10T06:44:40.142Z,100.00
2023-03-10T06:45:37.159Z,100.00
2023-03-10T06:46:33.989Z,100.00
2023-03-10T06:47:30.990Z,100.00
2023-03-10T06:48:27.816Z,100.00
2023-03-10T06:49:30.357Z,100.00
2023-03-10T06:50:28.489Z,100.00
2023-03-10T06:51:26.199Z,100.00
2023-03-10T06:52:23.159Z,100.00
2023-03-10T06:53:22.308Z,100.00
2023-03-10T06:54:19.323Z,100.00
2023-03-10T06:55:17.089Z,100.00
2023-03-10T06:56:24.080Z,100.00
2023-03-10T06:57:21.181Z,100.00
2023-03-10T06:58:17.961Z,100.00
2023-03-10T06:59:15.067Z,100.00
2023-03-10T07:00:15.816Z,100.00
2023-03-10T07:01:31.554Z,100.00
2023-03-10T07:02:28.428Z,100.00
2023-03-10T07:03:26.403Z,100.00
2023-03-10T07:04:23.268Z,100.00
2023-03-10T07:05:23.135Z,100.00
2023-03-10T07:06:20.909Z,100.00
2023-03-10T07:07:17.883Z,100.00
2023-03-10T07:08:14.709Z,100.00
2023-03-10T07:09:11.436Z,100.00
2023-03-10T07:10:09.094Z,100.00
2023-03-10T07:11:06.020Z,100.00
2023-03-10T07:12:02.991Z,100.00
2023-03-10T07:12:59.812Z,100.00
2023-03-10T07:13:56.904Z,100.00
2023-03-10T07:14:53.748Z,100.00
2023-03-10T07:15:50.786Z,100.00
2023-03-10T07:16:47.704Z,100.00
2023-03-10T07:17:44.776Z,100.00
2023-03-10T07:18:41.802Z,100.00
2023-03-10T07:19:39.039Z,100.00
2023-03-10T07:20:38.756Z,100.00
2023-03-10T07:21:35.668Z,100.00
2023-03-10T07:22:32.605Z,100.00
2023-03-10T07:23:29.469Z,100.00
2023-03-10T07:24:26.309Z,100.00
2023-03-10T07:25:24.890Z,100.00
2023-03-10T07:26:21.805Z,100.00
2023-03-10T07:27:18.596Z,100.00
2023-03-10T07:28:15.553Z,100.00
2023-03-10T07:29:12.476Z,100.00
2023-03-10T07:30:10.337Z,100.00
2023-03-10T07:31:10.469Z,100.00
2023-03-10T07:32:07.509Z,100.00
2023-03-10T07:33:04.664Z,100.00
2023-03-10T07:34:02.138Z,100.00
2023-03-10T07:35:01.985Z,100.00
2023-03-10T07:36:00.202Z,100.00
2023-03-10T07:36:57.163Z,100.00
2023-03-10T07:37:53.967Z,100.00
2023-03-10T07:38:50.932Z,100.00
2023-03-10T07:39:47.941Z,100.00
2023-03-10T07:40:44.831Z,100.00
2023-03-10T07:41:44.628Z,100.00
2023-03-10T07:42:44.765Z,100.00
2023-03-10T07:43:41.508Z,100.00
2023-03-10T07:44:38.262Z,100.00
2023-03-10T07:45:35.723Z,100.00
2023-03-10T07:46:32.640Z,100.00
2023-03-10T07:47:29.529Z,100.00
2023-03-10T07:48:26.445Z,100.00
2023-03-10T07:49:23.573Z,100.00
2023-03-10T07:50:21.941Z,100.00
2023-03-10T07:51:19.296Z,100.00
2023-03-10T07:52:16.520Z,100.00
2023-03-10T07:53:15.596Z,100.00
2023-03-10T07:54:15.011Z,100.00
2023-03-10T07:55:12.435Z,100.00
2023-03-10T07:56:12.191Z,100.00
2023-03-10T07:57:09.078Z,100.00
2023-03-10T07:58:06.304Z,100.00
2023-03-10T07:59:03.377Z,100.00
2023-03-10T08:00:00.339Z,100.00
2023-03-10T08:01:00.239Z,100.00
2023-03-10T08:01:57.026Z,100.00
2023-03-10T08:02:53.852Z,100.00
2023-03-10T08:03:56.698Z,100.00
2023-03-10T08:04:54.777Z,100.00
2023-03-10T08:05:51.858Z,99.05
2023-03-10T08:06:48.649Z,98.73
2023-03-10T08:07:45.467Z,100.00
2023-03-10T08:11:22.434Z,98.21
2023-03-10T08:12:57.392Z,95.24
2023-03-10T08:13:54.585Z,94.79
2023-03-10T08:15:07.906Z,93.59
2023-03-10T08:16:05.441Z,91.79
2023-03-10T08:17:02.653Z,90.85
2023-03-10T08:18:00.177Z,90.05
2023-03-10T08:18:57.132Z,89.15
2023-03-10T08:19:54.061Z,90.28
2023-03-10T08:20:50.904Z,89.74
2023-03-10T08:21:47.843Z,89.68
2023-03-10T08:22:44.815Z,89.98
2023-03-10T08:23:41.726Z,88.98
2023-03-10T08:24:39.311Z,88.21
2023-03-10T08:25:38.093Z,88.62
2023-03-10T08:26:35.584Z,88.49
2023-03-10T08:27:36.943Z,87.52
2023-03-10T08:28:35.349Z,86.14
2023-03-10T08:29:32.329Z,86.01
2023-03-10T08:30:29.346Z,86.21
2023-03-10T08:31:26.337Z,85.18
2023-03-10T08:32:23.285Z,82.93
2023-03-10T08:33:22.090Z,80.82
2023-03-10T08:34:21.949Z,79.43
2023-03-10T08:35:19.089Z,79.14
2023-03-10T08:36:29.288Z,79.42
2023-03-10T08:37:26.309Z,79.83
2023-03-10T08:38:23.262Z,79.84
2023-03-10T08:39:20.200Z,80.12
2023-03-10T08:40:17.294Z,79.24
2023-03-10T08:41:22.814Z,78.07
2023-03-10T08:42:19.701Z,77.19
2023-03-10T08:43:30.058Z,76.55
2023-03-10T08:44:27.832Z,76.81
2023-03-10T08:45:25.022Z,79.82
2023-03-10T08:46:24.770Z,82.01
2023-03-10T08:47:30.451Z,82.18
2023-03-10T08:48:31.126Z,81.56
2023-03-10T08:49:28.465Z,81.92
2023-03-10T08:50:25.390Z,83.01
2023-03-10T08:51:26.325Z,82.30
2023-03-10T08:52:24.444Z,81.95
2023-03-10T08:53:21.373Z,79.59
2023-03-10T08:54:22.690Z,79.15
2023-03-10T08:55:19.574Z,76.67
2023-03-10T08:56:18.386Z,78.54
2023-03-10T08:57:15.248Z,80.39
2023-03-10T08:58:12.090Z,81.13
2023-03-10T08:59:11.991Z,81.22
2023-03-10T09:00:12.504Z,80.54
2023-03-10T09:01:09.464Z,78.73
2023-03-10T09:02:07.106Z,76.69
2023-03-10T09:03:08.981Z,75.29
2023-03-10T09:04:08.511Z,74.08
2023-03-10T09:05:05.668Z,73.65
2023-03-10T09:06:03.875Z,73.16
2023-03-10T09:07:00.715Z,72.94
2023-03-10T09:07:57.518Z,72.31
2023-03-10T09:08:54.730Z,72.57
2023-03-10T09:09:52.328Z,72.77
2023-03-10T09:10:52.021Z,72.48
2023-03-10T09:11:51.320Z,71.80
2023-03-10T09:12:48.577Z,72.04
2023-03-10T09:13:45.681Z,73.07
2023-03-10T09:14:42.452Z,72.71
2023-03-10T09:15:41.512Z,72.40
2023-03-10T09:16:40.422Z,72.18
2023-03-10T09:17:40.523Z,71.88
2023-03-10T09:18:37.553Z,72.17
2023-03-10T09:19:34.355Z,73.15
2023-03-10T09:20:31.145Z,72.75
2023-03-10T09:21:33.131Z,72.06
2023-03-10T09:22:30.490Z,73.11
2023-03-10T09:23:27.876Z,72.40
2023-03-10T09:24:25.820Z,73.50
2023-03-10T09:25:23.237Z,74.17
2023-03-10T09:26:20.856Z,74.00
2023-03-10T09:27:17.647Z,75.12
2023-03-10T09:28:17.376Z,74.77
2023-03-10T09:29:15.495Z,73.32
2023-03-10T09:30:13.156Z,73.62
2023-03-10T09:31:16.903Z,72.75
2023-03-10T09:32:16.026Z,72.82
2023-03-10T09:33:19.559Z,71.04
2023-03-10T09:34:16.366Z,69.40
2023-03-10T09:35:13.169Z,69.34
2023-03-10T09:36:10.370Z,69.85
2023-03-10T09:37:08.568Z,70.45
2023-03-10T09:38:05.554Z,70.39
2023-03-10T09:39:02.981Z,70.04
2023-03-10T09:39:59.811Z,71.02
2023-03-10T09:41:08.775Z,70.31
2023-03-10T09:42:26.091Z,69.98
2023-03-10T09:43:39.136Z,68.75
2023-03-10T09:44:43.534Z,68.81
2023-03-10T09:45:46.290Z,69.03
2023-03-10T09:47:03.248Z,69.02
2023-03-10T09:48:26.514Z,69.05
2023-03-10T09:49:55.342Z,68.52
2023-03-10T09:50:56.600Z,69.03
2023-03-10T09:51:53.595Z,69.63
2023-03-10T09:53:07.348Z,71.33
2023-03-10T09:54:46.887Z,70.48
2023-03-10T09:55:48.666Z,69.33
2023-03-10T09:56:45.834Z,68.66
2023-03-10T09:57:43.457Z,69.18
2023-03-10T09:58:46.097Z,69.17
2023-03-10T09:59:47.921Z,69.27
2023-03-10T10:00:45.386Z,68.14
2023-03-10T10:01:47.469Z,68.26
2023-03-10T10:02:49.919Z,68.15
2023-03-10T10:03:54.718Z,67.79
2023-03-10T10:04:57.383Z,67.69
2023-03-10T10:05:55.948Z,66.91
2023-03-10T10:06:54.313Z,67.24
2023-03-10T10:07:57.205Z,67.31
2023-03-10T10:09:04.789Z,67.28
2023-03-10T10:10:19.102Z,67.16
2023-03-10T10:11:17.930Z,67.46
2023-03-10T10:12:23.658Z,67.13
2023-03-10T10:13:25.309Z,67.14
2023-03-10T10:14:29.849Z,66.92
2023-03-10T10:15:35.326Z,67.58
2023-03-10T10:16:47.778Z,68.31
2023-03-10T10:18:02.684Z,67.61
2023-03-10T10:19:20.505Z,67.18
2023-03-10T10:20:25.857Z,66.88
2023-03-10T10:21:46.337Z,66.46
2023-03-10T10:22:45.566Z,66.54
2023-03-10T10:23:54.291Z,66.74
2023-03-10T10:25:09.485Z,67.09
2023-03-10T10:26:15.944Z,67.29
2023-03-10T10:27:18.001Z,66.90
2023-03-10T10:28:34.055Z,66.96
2023-03-10T10:29:37.322Z,67.22
2023-03-10T10:30:39.909Z,67.81
2023-03-10T10:31:36.969Z,67.85
2023-03-10T10:32:33.742Z,67.75
2023-03-10T10:34:07.212Z,68.00
2023-03-10T10:35:15.594Z,68.40
2023-03-10T10:36:18.280Z,68.09
2023-03-10T10:37:23.808Z,70.47
2023-03-10T10:38:28.769Z,71.34
2023-03-10T10:39:33.015Z,71.28
2023-03-10T10:40:34.404Z,71.06
2023-03-10T10:41:34.530Z,70.83
2023-03-10T10:42:34.502Z,71.59
2023-03-10T10:43:39.710Z,70.96
2023-03-10T10:44:42.926Z,70.28
2023-03-10T10:45:40.392Z,70.51
2023-03-10T10:46:37.366Z,71.34
2023-03-10T10:47:52.543Z,72.52
2023-03-10T10:48:52.235Z,73.73
2023-03-10T10:49:49.157Z,72.82
2023-03-10T10:50:54.361Z,72.70
2023-03-10T10:52:19.186Z,73.98
2023-03-10T10:53:24.657Z,73.71
2023-03-10T10:54:44.698Z,74.44
2023-03-10T10:55:45.205Z,75.90
2023-03-10T10:56:53.405Z,74.92
2023-03-10T10:58:01.415Z,74.74
2023-03-10T10:59:20.667Z,75.44
2023-03-10T11:00:32.202Z,75.18
2023-03-10T11:01:59.854Z,74.64
2023-03-10T11:02:57.101Z,75.62
2023-03-10T11:04:06.772Z,79.18
2023-03-10T11:05:12.689Z,82.25
2023-03-10T11:06:18.509Z,83.91
2023-03-10T11:07:27.169Z,84.91
2023-03-10T11:08:27.079Z,85.35
2023-03-10T11:09:24.020Z,87.23
2023-03-10T11:10:28.114Z,87.33
2023-03-10T11:11:39.977Z,87.38
2023-03-10T11:13:05.702Z,91.39
2023-03-10T11:14:29.857Z,90.85
2023-03-10T11:16:11.349Z,94.81
2023-03-10T11:17:26.087Z,96.03
2023-03-10T11:18:36.605Z,98.08
2023-03-10T11:19:49.961Z,97.84
2023-03-10T11:21:00.557Z,100.00
2023-03-10T11:22:13.649Z,100.00
2023-03-10T11:23:24.132Z,100.00
2023-03-10T11:24:52.706Z,100.00
2023-03-10T11:26:16.736Z,98.93
2023-03-10T11:27:36.730Z,97.66
2023-03-10T11:29:13.781Z,99.02
2023-03-10T11:30:20.231Z,100.00
2023-03-10T11:31:20.170Z,100.00
2023-03-10T11:32:41.977Z,100.00
2023-03-10T11:33:50.578Z,100.00
2023-03-10T11:34:53.961Z,100.00
2023-03-10T11:36:01.110Z,100.00
2023-03-10T11:36:58.368Z,100.00
2023-03-10T11:38:15.241Z,100.00
2023-03-10T11:39:25.222Z,100.00
2023-03-10T11:40:52.758Z,100.00
2023-03-10T11:42:03.122Z,100.00
2023-03-10T11:43:21.757Z,100.00
2023-03-10T11:45:00.345Z,100.00
2023-03-10T11:46:03.959Z,100.00
2023-03-10T11:47:19.431Z,100.00
2023-03-10T11:48:53.336Z,100.00
2023-03-10T11:50:03.937Z,100.00
2023-03-10T11:51:06.084Z,100.00
2023-03-10T11:52:18.887Z,100.00
2023-03-10T11:53:23.779Z,100.00
2023-03-10T11:54:27.204Z,100.00
2023-03-10T11:55:25.203Z,100.00
2023-03-10T11:56:24.915Z,100.00
2023-03-10T11:57:24.917Z,100.00
2023-03-10T11:58:32.405Z,100.00
2023-03-10T11:59:35.646Z,100.00
2023-03-10T12:00:54.408Z,100.00
2023-03-10T12:01:54.829Z,100.00
2023-03-10T12:03:12.020Z,100.00
2023-03-10T12:04:13.636Z,100.00
2023-03-10T12:05:59.774Z,100.00
2023-03-10T12:07:52.428Z,100.00
2023-03-10T12:08:57.663Z,100.00
2023-03-10T12:10:25.581Z,100.00
2023-03-10T12:11:27.246Z,100.00
2023-03-10T12:12:38.816Z,100.00
2023-03-10T12:13:49.172Z,100.00
2023-03-10T12:14:47.824Z,100.00
2023-03-10T12:15:46.568Z,100.00
2023-03-10T12:16:44.854Z,100.00
2023-03-10T12:17:43.198Z,100.00
2023-03-10T12:18:40.435Z,100.00
2023-03-10T12:20:16.084Z,100.00
2023-03-10T12:21:26.243Z,100.00
2023-03-10T12:22:25.423Z,100.00
2023-03-10T12:23:25.183Z,100.00
2023-03-10T12:24:45.809Z,100.00
2023-03-10T12:25:44.469Z,100.00
2023-03-10T12:26:41.150Z,100.00
2023-03-10T12:28:16.064Z,100.00
2023-03-10T12:29:21.754Z,100.00
2023-03-10T12:30:56.397Z,100.00
2023-03-10T12:31:55.582Z,100.00
2023-03-10T12:32:52.572Z,100.00
2023-03-10T12:33:52.411Z,100.00
2023-03-10T12:35:23.398Z,100.00
2023-03-10T12:36:39.690Z,100.00
2023-03-10T12:37:36.593Z,100.00
2023-03-10T12:38:42.804Z,100.00
2023-03-10T12:39:44.343Z,100.00
2023-03-10T12:40:49.151Z,100.00
2023-03-10T12:41:49.522Z,100.00
2023-03-10T12:42:47.123Z,100.00
2023-03-10T12:43:52.949Z,100.00
2023-03-10T12:45:08.228Z,100.00
2023-03-10T12:46:12.537Z,100.00
2023-03-10T12:47:09.341Z,100.00